Time;durP1;ratioP1;P1;durP2;ratioP2;P2;SDS_P1;SDS_P2;PMS_P1;PMS_P2;Temp;Humidity;BMP_temperature;BMP_pressure;BME280_temperature;BME280_humidity;BME280_pressure;Samples;Min_cycle;Max_cycle;Signal;HPM_P1;HPM_P2
2023/06/16 00:01:53;;;;;;;0.63;0.32;;;24.80;77.50;;;;;;6244898;23;20166;-82
2023/06/16 00:04:25;;;;;;;0.68;0.68;;;24.70;77.50;;;;;;6244454;23;20541;-82
2023/06/16 00:06:56;;;;;;;1.05;0.70;;;24.70;77.60;;;;;;6243666;23;20593;-83
2023/06/16 00:09:25;;;;;;;2.08;0.85;;;24.70;77.90;;;;;;6243619;23;20237;-83
2023/06/16 00:11:55;;;;;;;0.30;0.30;;;24.70;77.90;;;;;;6243671;23;20198;-83
2023/06/16 00:14:24;;;;;;;1.17;0.30;;;24.70;77.90;;;;;;6243767;23;20177;-82
2023/06/16 00:16:53;;;;;;;0.55;0.55;;;24.70;77.90;;;;;;6243207;23;20163;-83
2023/06/16 00:19:27;;;;;;;0.68;0.52;;;24.70;78.10;;;;;;6244043;23;20246;-83
2023/06/16 00:21:59;;;;;;;0.47;0.30;;;24.60;78.30;;;;;;6244133;23;20246;-84
2023/06/16 00:24:28;;;;;;;1.13;0.73;;;24.60;78.60;;;;;;6216047;23;20194;-83
2023/06/16 00:26:57;;;;;;;0.95;0.60;;;24.60;79.00;;;;;;6243589;23;20204;-83
2023/06/16 00:29:27;;;;;;;0.32;0.32;;;24.60;79.10;;;;;;6193373;23;20551;-82
2023/06/16 00:31:55;;;;;;;1.27;0.85;;;24.50;79.20;;;;;;6242761;23;20202;-83
2023/06/16 00:34:24;;;;;;;1.17;0.50;;;24.50;79.60;;;;;;6243120;23;20569;-83
2023/06/16 00:36:52;;;;;;;0.90;0.73;;;24.50;79.80;;;;;;6242861;23;20189;-83
2023/06/16 00:39:21;;;;;;;0.88;0.38;;;24.40;80.10;;;;;;6242174;23;20201;-82
2023/06/16 00:41:50;;;;;;;0.40;0.40;;;24.40;80.40;;;;;;6242438;23;20167;-82
2023/06/16 00:44:18;;;;;;;3.00;0.70;;;24.40;80.60;;;;;;6242956;23;20689;-83
2023/06/16 00:46:48;;;;;;;1.05;0.73;;;24.40;81.00;;;;;;6243310;23;20627;-83
2023/06/16 00:49:17;;;;;;;0.47;0.47;;;24.30;81.30;;;;;;6243287;23;20161;-83
2023/06/16 00:51:47;;;;;;;0.63;0.63;;;24.30;81.60;;;;;;6243913;23;20194;-83
2023/06/16 00:54:16;;;;;;;1.25;0.52;;;24.30;81.40;;;;;;6241775;23;20170;-84
2023/06/16 00:56:45;;;;;;;0.55;0.55;;;24.30;82.10;;;;;;6243282;23;20171;-83
2023/06/16 00:59:14;;;;;;;0.75;0.65;;;24.30;82.00;;;;;;6243245;23;20177;-83
2023/06/16 01:01:43;;;;;;;0.40;0.40;;;24.20;81.80;;;;;;6242401;23;20166;-83
2023/06/16 01:04:13;;;;;;;1.23;0.52;;;24.20;83.50;;;;;;6243274;23;20182;-81
2023/06/16 01:06:55;;;;;;;0.88;0.82;;;24.10;83.60;;;;;;6244094;23;20174;-81
2023/06/16 01:09:33;;;;;;;1.48;0.70;;;24.10;83.30;;;;;;6243513;23;20159;-82
2023/06/16 01:12:12;;;;;;;0.95;0.65;;;24.10;84.20;;;;;;6244064;23;20189;-82
2023/06/16 01:14:53;;;;;;;0.40;0.30;;;24.10;83.60;;;;;;6244611;23;20162;-82
2023/06/16 01:17:26;;;;;;;0.60;0.60;;;24.10;84.20;;;;;;6243863;23;20158;-82
2023/06/16 01:20:09;;;;;;;0.50;0.50;;;24.10;83.40;;;;;;6242446;23;20159;-83
2023/06/16 01:23:10;;;;;;;1.00;0.60;;;24.10;83.40;;;;;;6243982;23;20245;-83
2023/06/16 01:25:42;;;;;;;0.98;0.52;;;24.00;83.30;;;;;;6131891;23;20668;-82
2023/06/16 01:28:13;;;;;;;1.77;0.98;;;24.00;83.10;;;;;;6213576;23;20194;-83
2023/06/16 01:30:45;;;;;;;1.55;0.68;;;24.00;82.80;;;;;;6211818;23;20675;-82
2023/06/16 01:33:16;;;;;;;0.82;0.73;;;24.00;83.00;;;;;;6212728;23;20183;-82
2023/06/16 01:35:46;;;;;;;0.65;0.60;;;23.90;83.10;;;;;;6213165;23;20171;-83
2023/06/16 01:38:15;;;;;;;0.30;0.30;;;23.90;82.90;;;;;;6212718;23;20178;-84
2023/06/16 01:40:46;;;;;;;0.38;0.38;;;23.90;82.70;;;;;;6211943;23;20609;-83
2023/06/16 01:43:15;;;;;;;0.68;0.52;;;23.80;82.60;;;;;;6212684;23;20171;-81
2023/06/16 01:45:44;;;;;;;0.35;0.35;;;23.80;82.50;;;;;;6212651;23;20174;-83
2023/06/16 01:48:13;;;;;;;0.35;0.35;;;23.80;82.40;;;;;;6213354;23;20627;-83
2023/06/16 01:50:42;;;;;;;0.70;0.68;;;23.80;82.20;;;;;;6212354;23;20190;-83
2023/06/16 01:53:11;;;;;;;0.40;0.40;;;23.80;82.10;;;;;;6213222;23;20728;-83
2023/06/16 01:55:39;;;;;;;0.85;0.63;;;23.70;81.90;;;;;;6211710;23;20171;-83
2023/06/16 01:58:09;;;;;;;1.75;0.60;;;23.70;82.10;;;;;;6212563;23;20178;-82
2023/06/16 02:00:44;;;;;;;7.80;2.08;;;23.70;81.80;;;;;;6212536;23;20221;-83
2023/06/16 02:03:17;;;;;;;2.08;0.82;;;23.70;81.50;;;;;;6212831;23;20155;-83
2023/06/16 02:05:51;;;;;;;1.00;0.77;;;23.70;81.20;;;;;;6212492;23;20160;-83
2023/06/16 02:08:24;;;;;;;1.38;0.63;;;23.60;80.80;;;;;;6211849;23;20155;-83
2023/06/16 02:10:54;;;;;;;0.68;0.63;;;23.60;80.60;;;;;;6214468;23;20481;-83
2023/06/16 02:13:24;;;;;;;0.52;0.50;;;23.60;80.40;;;;;;6215014;23;20206;-82
2023/06/16 02:15:53;;;;;;;0.43;0.43;;;23.60;80.20;;;;;;6214900;23;20151;-83
2023/06/16 02:18:27;;;;;;;3.67;0.60;;;23.60;80.00;;;;;;6215338;23;20171;-83
2023/06/16 02:20:56;;;;;;;0.63;0.43;;;23.60;79.60;;;;;;6214497;23;20182;-83
2023/06/16 02:23:25;;;;;;;0.55;0.52;;;23.50;79.50;;;;;;6217050;23;20171;-83
2023/06/16 02:25:54;;;;;;;0.60;0.60;;;23.60;79.40;;;;;;6244235;23;20194;-83
2023/06/16 02:28:24;;;;;;;0.73;0.65;;;23.50;78.90;;;;;;6245688;23;20542;-83
2023/06/16 02:30:52;;;;;;;0.40;0.40;;;23.50;78.80;;;;;;6243930;23;20177;-83
2023/06/16 02:33:20;;;;;;;0.20;0.20;;;23.50;78.70;;;;;;6245360;23;20194;-84
2023/06/16 02:35:49;;;;;;;1.35;1.23;;;23.50;78.60;;;;;;6244617;23;20170;-84
2023/06/16 02:38:17;;;;;;;0.50;0.50;;;23.50;78.50;;;;;;6243948;23;20642;-84
2023/06/16 02:40:46;;;;;;;1.10;0.60;;;23.50;78.40;;;;;;6244571;23;20228;-84
2023/06/16 02:43:14;;;;;;;0.52;0.40;;;23.50;78.30;;;;;;6244455;23;20170;-81
2023/06/16 02:45:44;;;;;;;0.20;0.20;;;23.50;78.10;;;;;;6217388;23;20220;-84
2023/06/16 02:48:13;;;;;;;0.88;0.75;;;23.50;78.00;;;;;;6245495;23;20170;-83
2023/06/16 02:50:42;;;;;;;0.50;0.50;;;23.50;78.00;;;;;;6244256;23;20177;-84
2023/06/16 02:53:13;;;;;;;0.57;0.47;;;23.50;78.00;;;;;;6217988;23;20190;-83
2023/06/16 02:55:43;;;;;;;3.17;1.08;;;23.50;77.80;;;;;;6243817;23;20660;-82
2023/06/16 02:58:12;;;;;;;1.15;1.05;;;23.40;78.50;;;;;;6244099;23;20166;-81
2023/06/16 03:00:41;;;;;;;1.33;1.23;;;23.40;77.60;;;;;;6243136;23;20711;-81
2023/06/16 03:03:11;;;;;;;0.50;0.50;;;23.40;77.60;;;;;;6244191;23;20170;-81
2023/06/16 03:05:40;;;;;;;1.85;0.63;;;23.40;77.50;;;;;;6242563;23;20163;-82
2023/06/16 03:08:08;;;;;;;1.27;0.38;;;23.40;77.50;;;;;;6243655;23;20916;-84
2023/06/16 03:10:37;;;;;;;3.17;0.68;;;23.40;77.50;;;;;;6245139;23;20174;-81
2023/06/16 03:13:05;;;;;;;0.28;0.28;;;23.40;77.40;;;;;;6245226;23;20194;-83
2023/06/16 03:15:35;;;;;;;0.57;0.45;;;23.40;77.40;;;;;;6244253;23;20174;-83
2023/06/16 03:18:03;;;;;;;0.30;0.30;;;23.40;77.40;;;;;;6218395;23;20530;-84
2023/06/16 03:20:34;;;;;;;0.38;0.38;;;23.40;77.40;;;;;;6243053;23;20711;-84
2023/06/16 03:23:03;;;;;;;0.85;0.73;;;23.40;77.40;;;;;;6244456;23;20174;-83
2023/06/16 03:25:32;;;;;;;0.65;0.63;;;23.40;77.40;;;;;;6216657;23;20533;-84
2023/06/16 03:28:01;;;;;;;9.95;1.25;;;23.40;77.40;;;;;;6244021;23;20170;-84
2023/06/16 03:30:29;;;;;;;0.60;0.60;;;23.40;77.40;;;;;;6242724;23;20264;-82
2023/06/16 03:32:58;;;;;;;0.70;0.50;;;23.40;77.50;;;;;;6244046;23;20674;-83
2023/06/16 03:35:26;;;;;;;3.60;1.13;;;23.40;77.50;;;;;;6243002;23;20171;-83
2023/06/16 03:37:56;;;;;;;1.45;0.82;;;23.40;77.50;;;;;;6245140;23;20517;-83
2023/06/16 03:40:24;;;;;;;0.63;0.63;;;23.40;77.50;;;;;;6243831;23;20163;-83
2023/06/16 03:42:53;;;;;;;0.35;0.35;;;23.50;77.50;;;;;;6244841;23;20177;-84
2023/06/16 03:45:21;;;;;;;0.73;0.73;;;23.50;77.50;;;;;;6242345;23;20167;-82
2023/06/16 03:47:52;;;;;;;0.40;0.40;;;23.50;77.40;;;;;;6244665;23;20196;-84
2023/06/16 03:50:21;;;;;;;0.60;0.60;;;23.50;77.20;;;;;;6244097;23;20158;-82
2023/06/16 03:52:49;;;;;;;1.00;0.90;;;23.50;77.40;;;;;;6244639;23;20268;-82
2023/06/16 03:55:39;;;;;;;0.65;0.52;;;23.50;77.20;;;;;;6243765;23;20170;-83
2023/06/16 03:58:08;;;;;;;1.25;1.15;;;23.50;77.10;;;;;;6243716;23;20635;-82
2023/06/16 04:00:37;;;;;;;0.20;0.20;;;23.50;77.10;;;;;;6243526;23;20502;-82
2023/06/16 04:03:05;;;;;;;0.50;0.50;;;23.50;77.00;;;;;;6244380;23;20175;-82
2023/06/16 04:05:34;;;;;;;1.70;0.90;;;23.50;76.90;;;;;;6243424;23;20217;-82
2023/06/16 04:08:03;;;;;;;0.68;0.68;;;23.50;76.80;;;;;;6217506;23;20166;-81
2023/06/16 04:10:32;;;;;;;2.15;1.00;;;23.60;76.80;;;;;;6243420;23;20253;-82
2023/06/16 04:13:03;;;;;;;1.45;1.00;;;23.60;76.80;;;;;;6244451;23;20254;-81
2023/06/16 04:15:31;;;;;;;0.47;0.47;;;23.60;76.80;;;;;;6243529;23;20217;-82
2023/06/16 04:18:00;;;;;;;0.77;0.70;;;23.60;76.80;;;;;;6243859;23;20241;-83
2023/06/16 04:20:29;;;;;;;3.40;0.60;;;23.60;76.60;;;;;;6243031;23;20228;-81
2023/06/16 04:22:57;;;;;;;1.42;0.80;;;23.60;76.60;;;;;;6243600;23;20181;-82
2023/06/16 04:25:26;;;;;;;2.17;0.63;;;23.70;76.60;;;;;;6242256;22;20194;-83
2023/06/16 04:27:54;;;;;;;0.30;0.30;;;23.70;76.60;;;;;;6243357;23;20217;-83
2023/06/16 04:30:24;;;;;;;0.80;0.65;;;23.70;76.60;;;;;;6242399;23;20601;-81
2023/06/16 04:32:54;;;;;;;1.75;1.08;;;23.70;76.60;;;;;;6243957;23;20167;-81
2023/06/16 04:35:24;;;;;;;1.70;0.82;;;23.80;76.60;;;;;;6242977;23;20198;-79
2023/06/16 04:37:53;;;;;;;3.05;1.15;;;23.80;76.60;;;;;;6243280;23;20719;-81
2023/06/16 04:40:22;;;;;;;0.47;0.40;;;23.80;76.50;;;;;;6241925;23;20163;-81
2023/06/16 04:42:50;;;;;;;0.77;0.73;;;23.90;76.50;;;;;;6244444;23;20262;-82
2023/06/16 04:45:20;;;;;;;0.80;0.57;;;23.90;76.40;;;;;;6242330;23;20167;-81
2023/06/16 04:47:50;;;;;;;0.63;0.50;;;24.00;76.40;;;;;;6243944;23;20177;-82
2023/06/16 04:50:19;;;;;;;1.02;0.70;;;24.00;77.30;;;;;;6243118;23;20158;-81
2023/06/16 04:52:49;;;;;;;0.80;0.65;;;24.00;76.30;;;;;;6242423;23;20171;-83
2023/06/16 04:55:18;;;;;;;0.60;0.60;;;24.00;76.20;;;;;;6242943;23;20155;-81
2023/06/16 04:57:46;;;;;;;0.90;0.85;;;24.10;76.30;;;;;;6243125;23;20166;-82
2023/06/16 05:00:15;;;;;;;1.20;0.75;;;24.10;76.40;;;;;;6243290;23;20503;-81
2023/06/16 05:02:44;;;;;;;0.45;0.45;;;24.10;76.50;;;;;;6243414;23;20620;-81
2023/06/16 05:05:14;;;;;;;0.75;0.73;;;24.20;76.60;;;;;;6243054;23;20201;-80
2023/06/16 05:07:42;;;;;;;10.70;2.42;;;24.20;76.60;;;;;;6244001;23;20167;-83
2023/06/16 05:10:11;;;;;;;0.90;0.82;;;24.20;76.60;;;;;;6242746;23;20541;-81
2023/06/16 05:12:39;;;;;;;1.13;0.60;;;24.30;76.70;;;;;;6243830;23;20170;-83
2023/06/16 05:15:09;;;;;;;1.23;1.13;;;24.40;76.60;;;;;;6242905;23;20194;-81
2023/06/16 05:17:38;;;;;;;1.20;0.77;;;24.40;76.50;;;;;;6243992;23;20639;-83
2023/06/16 05:20:08;;;;;;;0.45;0.45;;;24.40;76.40;;;;;;6243636;23;20228;-83
2023/06/16 05:22:37;;;;;;;1.25;0.70;;;24.50;76.40;;;;;;6242659;23;20167;-83
2023/06/16 05:25:07;;;;;;;0.50;0.50;;;24.50;76.40;;;;;;6242510;22;20245;-82
2023/06/16 05:27:35;;;;;;;0.47;0.47;;;24.50;76.30;;;;;;6243150;23;20170;-81
2023/06/16 05:30:03;;;;;;;1.33;1.15;;;24.50;75.80;;;;;;6243642;23;20547;-83
2023/06/16 05:32:32;;;;;;;2.33;0.93;;;24.50;75.70;;;;;;6242903;23;20171;-82
2023/06/16 05:35:00;;;;;;;0.90;0.90;;;24.60;75.70;;;;;;6243637;23;20198;-82
2023/06/16 05:37:29;;;;;;;0.85;0.70;;;24.60;75.50;;;;;;6243013;23;20675;-82
2023/06/16 05:39:59;;;;;;;0.77;0.65;;;24.60;75.40;;;;;;6243554;23;20167;-83
2023/06/16 05:42:27;;;;;;;1.33;1.05;;;24.60;75.40;;;;;;6242957;23;20502;-82
2023/06/16 05:44:56;;;;;;;0.95;0.90;;;24.60;75.20;;;;;;6246185;23;20197;-82
2023/06/16 05:47:24;;;;;;;1.10;1.00;;;24.70;75.20;;;;;;6245024;23;20201;-82
2023/06/16 05:49:52;;;;;;;0.43;0.43;;;24.70;75.10;;;;;;6246296;23;20245;-81
2023/06/16 05:52:21;;;;;;;4.15;1.38;;;24.70;75.10;;;;;;6243765;23;20178;-82
2023/06/16 05:54:49;;;;;;;0.60;0.60;;;24.80;75.00;;;;;;6245611;23;20194;-81
2023/06/16 05:57:19;;;;;;;2.15;1.00;;;24.80;75.00;;;;;;6244717;23;20163;-82
2023/06/16 05:59:50;;;;;;;0.57;0.57;;;24.80;74.90;;;;;;6245841;23;20166;-82
2023/06/16 06:02:19;;;;;;;1.30;0.68;;;24.90;74.90;;;;;;6244872;23;20234;-82
2023/06/16 06:04:48;;;;;;;0.40;0.40;;;24.90;74.70;;;;;;6245311;23;20193;-83
2023/06/16 06:07:17;;;;;;;0.98;0.77;;;25.00;74.60;;;;;;6244115;23;20619;-82
2023/06/16 06:09:46;;;;;;;0.30;0.30;;;25.00;74.60;;;;;;6244600;23;20171;-82
2023/06/16 06:12:17;;;;;;;0.55;0.55;;;25.10;74.40;;;;;;6243781;23;20242;-83
2023/06/16 06:14:47;;;;;;;1.35;1.25;;;25.10;74.20;;;;;;6245482;23;20518;-83
2023/06/16 06:17:15;;;;;;;0.40;0.40;;;25.20;74.10;;;;;;6244824;23;20616;-83
2023/06/16 06:19:44;;;;;;;0.68;0.68;;;25.30;74.20;;;;;;6245873;23;20487;-83
2023/06/16 06:22:12;;;;;;;0.75;0.75;;;25.30;74.00;;;;;;6245077;23;20502;-83
2023/06/16 06:24:41;;;;;;;2.00;1.15;;;25.40;74.00;;;;;;6244967;23;20190;-83
2023/06/16 06:27:10;;;;;;;0.95;0.65;;;25.40;73.90;;;;;;6244992;23;20241;-82
2023/06/16 06:29:39;;;;;;;1.60;0.30;;;25.50;73.80;;;;;;6245325;23;20167;-82
2023/06/16 06:32:11;;;;;;;1.27;0.68;;;25.50;73.60;;;;;;6243626;23;20253;-83
2023/06/16 06:34:40;;;;;;;0.65;0.65;;;25.60;73.60;;;;;;6245001;23;20236;-82
2023/06/16 06:37:16;;;;;;;0.30;0.30;;;25.60;73.60;;;;;;6217673;23;20176;-82
2023/06/16 06:39:44;;;;;;;1.55;0.95;;;25.70;73.30;;;;;;6243627;23;20163;-82
2023/06/16 06:42:15;;;;;;;0.38;0.35;;;25.70;73.10;;;;;;6243869;23;20174;-83
2023/06/16 06:44:43;;;;;;;0.82;0.50;;;25.70;72.70;;;;;;6245053;23;20162;-82
2023/06/16 06:47:13;;;;;;;0.45;0.45;;;25.80;72.80;;;;;;6244104;23;20178;-81
2023/06/16 06:49:42;;;;;;;0.93;0.73;;;25.90;72.60;;;;;;6219129;23;20159;-82
2023/06/16 06:52:11;;;;;;;0.93;0.70;;;25.90;72.60;;;;;;6217555;23;20220;-82
2023/06/16 06:54:39;;;;;;;0.35;0.35;;;25.90;72.30;;;;;;6244764;23;20307;-83
2023/06/16 06:57:08;;;;;;;1.52;0.77;;;25.90;72.20;;;;;;6217141;23;20174;-82
2023/06/16 06:59:37;;;;;;;0.65;0.47;;;26.00;72.10;;;;;;6218141;23;20640;-82
2023/06/16 07:02:07;;;;;;;1.33;0.98;;;26.00;71.50;;;;;;6244116;23;20504;-81
2023/06/16 07:04:38;;;;;;;1.10;0.55;;;26.00;71.20;;;;;;6218216;23;20170;-83
2023/06/16 07:07:08;;;;;;;0.52;0.40;;;26.10;71.20;;;;;;6244730;23;20161;-83
2023/06/16 07:09:36;;;;;;;0.70;0.55;;;26.10;71.00;;;;;;6244329;23;20177;-81
2023/06/16 07:12:07;;;;;;;0.68;0.68;;;26.10;70.80;;;;;;6243176;23;20171;-83
2023/06/16 07:14:35;;;;;;;0.70;0.40;;;26.10;70.20;;;;;;6245301;23;20725;-82
2023/06/16 07:17:04;;;;;;;1.58;1.42;;;26.10;69.80;;;;;;6243795;23;20225;-82
2023/06/16 07:19:32;;;;;;;1.98;0.30;;;26.10;70.00;;;;;;6243380;23;20542;-82
2023/06/16 07:22:02;;;;;;;2.47;0.77;;;26.10;69.80;;;;;;6244488;23;20502;-82
2023/06/16 07:24:31;;;;;;;7.28;0.77;;;26.10;69.50;;;;;;6244004;22;20194;-82
2023/06/16 07:27:01;;;;;;;0.60;0.60;;;26.20;69.60;;;;;;6243571;23;20166;-82
2023/06/16 07:29:30;;;;;;;0.50;0.30;;;26.20;69.80;;;;;;6244568;23;20154;-82
2023/06/16 07:31:59;;;;;;;0.50;0.50;;;26.20;69.50;;;;;;6217418;23;20170;-81
2023/06/16 07:34:28;;;;;;;0.98;0.88;;;26.30;69.80;;;;;;6243569;23;20170;-82
2023/06/16 07:36:56;;;;;;;6.15;1.17;;;26.40;69.90;;;;;;6244495;23;20176;-82
2023/06/16 07:39:27;;;;;;;0.30;0.30;;;26.40;69.80;;;;;;6244005;23;20170;-82
2023/06/16 07:41:55;;;;;;;0.30;0.30;;;26.40;69.60;;;;;;6244260;23;20658;-82
2023/06/16 07:44:23;;;;;;;1.60;0.88;;;26.50;69.70;;;;;;6244230;23;20171;-82
2023/06/16 07:46:52;;;;;;;0.30;0.30;;;26.50;69.30;;;;;;6243895;23;20217;-83
2023/06/16 07:49:20;;;;;;;0.35;0.32;;;26.60;69.00;;;;;;6244282;23;20166;-82
2023/06/16 07:51:49;;;;;;;1.35;0.70;;;26.60;68.50;;;;;;6243949;23;20167;-80
2023/06/16 07:54:18;;;;;;;0.82;0.68;;;26.70;67.30;;;;;;6244301;23;20171;-82
2023/06/16 07:56:50;;;;;;;0.45;0.45;;;26.70;67.30;;;;;;6243905;23;20194;-81
2023/06/16 07:59:18;;;;;;;0.73;0.73;;;26.70;67.50;;;;;;6243853;23;20161;-82
2023/06/16 08:01:47;;;;;;;0.25;0.25;;;26.80;67.10;;;;;;6244117;23;20497;-83
2023/06/16 08:04:15;;;;;;;0.30;0.30;;;26.80;67.30;;;;;;6244060;23;20167;-83
2023/06/16 08:06:44;;;;;;;1.27;0.90;;;26.90;67.10;;;;;;6243193;23;20202;-83
2023/06/16 08:09:14;;;;;;;0.38;0.38;;;27.00;66.90;;;;;;6243044;23;20244;-83
2023/06/16 08:11:43;;;;;;;0.50;0.50;;;27.00;67.00;;;;;;6217508;23;20167;-82
2023/06/16 08:14:13;;;;;;;0.45;0.38;;;27.10;66.90;;;;;;6242413;23;20496;-82
2023/06/16 08:16:41;;;;;;;0.52;0.45;;;27.20;66.70;;;;;;6244017;23;20198;-82
2023/06/16 08:19:10;;;;;;;0.85;0.75;;;27.30;66.30;;;;;;6244237;23;20537;-84
2023/06/16 08:21:39;;;;;;;0.63;0.45;;;27.30;66.00;;;;;;6243186;23;20178;-82
2023/06/16 08:24:08;;;;;;;3.75;0.60;;;27.40;65.50;;;;;;6242714;22;20204;-82
2023/06/16 08:26:37;;;;;;;0.20;0.20;;;27.50;65.70;;;;;;6244542;23;20600;-82
2023/06/16 08:29:10;;;;;;;0.35;0.35;;;27.50;64.30;;;;;;6244242;23;20234;-82
2023/06/16 08:31:40;;;;;;;0.63;0.60;;;27.50;64.70;;;;;;6244525;23;20155;-82
2023/06/16 08:34:09;;;;;;;0.90;0.55;;;27.60;64.90;;;;;;6243243;23;20292;-82
2023/06/16 08:36:37;;;;;;;0.50;0.50;;;27.70;64.90;;;;;;6243741;23;20194;-82
2023/06/16 08:39:07;;;;;;;0.57;0.50;;;27.80;63.20;;;;;;6241732;23;20584;-82
2023/06/16 08:41:37;;;;;;;0.32;0.32;;;27.90;63.40;;;;;;6243779;23;20173;-83
2023/06/16 08:44:08;;;;;;;0.55;0.47;;;27.90;63.00;;;;;;6243591;23;20167;-82
2023/06/16 08:46:38;;;;;;;0.30;0.30;;;28.00;62.30;;;;;;6244273;23;20163;-82
2023/06/16 08:49:08;;;;;;;1.90;0.70;;;28.20;62.70;;;;;;6242555;23;20189;-82
2023/06/16 08:51:40;;;;;;;0.55;0.55;;;28.20;61.00;;;;;;6244003;23;20177;-82
2023/06/16 08:54:10;;;;;;;0.40;0.40;;;28.30;60.90;;;;;;6242839;23;20162;-82
2023/06/16 08:56:40;;;;;;;0.35;0.35;;;28.30;60.30;;;;;;6243527;23;20281;-82
2023/06/16 08:59:09;;;;;;;0.40;0.40;;;28.40;60.70;;;;;;6242726;23;20178;-82
2023/06/16 09:01:39;;;;;;;0.25;0.25;;;28.40;59.70;;;;;;6243844;23;20189;-82
2023/06/16 09:04:13;;;;;;;0.60;0.57;;;28.40;57.50;;;;;;6243204;23;20646;-82
2023/06/16 09:06:45;;;;;;;0.20;0.20;;;28.50;57.90;;;;;;6243584;23;20154;-82
2023/06/16 09:09:16;;;;;;;0.77;0.50;;;28.60;57.90;;;;;;6243113;23;20240;-83
2023/06/16 09:11:44;;;;;;;0.75;0.75;;;28.70;57.40;;;;;;6242962;23;20228;-82
2023/06/16 09:14:14;;;;;;;7.65;1.35;;;28.70;56.80;;;;;;6243919;23;20170;-83
2023/06/16 09:16:55;;;;;;;0.32;0.32;;;28.70;57.10;;;;;;6243514;23;20300;-82
2023/06/16 09:19:26;;;;;;;0.25;0.20;;;28.80;57.20;;;;;;6241882;23;20172;-82
2023/06/16 09:21:56;;;;;;;0.38;0.38;;;28.70;56.10;;;;;;6243151;23;20190;-82
2023/06/16 09:24:27;;;;;;;0.70;0.68;;;28.80;55.60;;;;;;6243217;22;20190;-80
2023/06/16 09:26:59;;;;;;;0.40;0.40;;;28.70;55.00;;;;;;6242618;23;20222;-82
2023/06/16 09:29:29;;;;;;;13.10;1.75;;;28.80;55.00;;;;;;6215815;23;20165;-83
2023/06/16 09:32:09;;;;;;;0.63;0.60;;;28.80;54.30;;;;;;6243398;23;20250;-82
2023/06/16 09:34:39;;;;;;;0.80;0.73;;;28.80;54.80;;;;;;6243486;23;20177;-83
2023/06/16 09:37:07;;;;;;;0.73;0.68;;;28.80;54.80;;;;;;6242447;23;20190;-83
2023/06/16 09:39:36;;;;;;;0.85;0.63;;;28.90;55.10;;;;;;6217252;23;20248;-82
2023/06/16 09:42:12;;;;;;;0.22;0.22;;;28.90;55.30;;;;;;6242380;23;20650;-81
2023/06/16 09:44:41;;;;;;;0.50;0.50;;;28.90;55.40;;;;;;6216898;23;20616;-82
2023/06/16 09:47:14;;;;;;;3.80;0.80;;;28.90;55.70;;;;;;6216088;23;20166;-83
2023/06/16 09:49:46;;;;;;;2.08;1.08;;;28.90;55.30;;;;;;6243282;23;20159;-82
2023/06/16 09:52:17;;;;;;;0.60;0.60;;;28.90;55.30;;;;;;6242374;23;20159;-81
2023/06/16 09:54:46;;;;;;;1.88;1.05;;;29.00;55.30;;;;;;6243248;23;20746;-82
2023/06/16 09:57:15;;;;;;;0.40;0.40;;;29.00;55.40;;;;;;6243100;23;20209;-82
2023/06/16 09:59:44;;;;;;;1.10;0.50;;;28.90;54.90;;;;;;6242412;23;20266;-82
2023/06/16 10:02:14;;;;;;;0.77;0.40;;;28.90;54.60;;;;;;6242936;23;20174;-81
2023/06/16 10:04:45;;;;;;;0.20;0.20;;;28.90;55.10;;;;;;6242780;23;20174;-82
2023/06/16 10:07:14;;;;;;;0.65;0.47;;;28.80;54.90;;;;;;6242571;23;20219;-81
2023/06/16 10:09:49;;;;;;;0.20;0.20;;;28.80;54.60;;;;;;6243636;23;20231;-82
2023/06/16 10:12:34;;;;;;;0.95;0.32;;;28.90;54.90;;;;;;6243347;23;20154;-82
2023/06/16 10:15:04;;;;;;;1.38;0.73;;;28.90;54.90;;;;;;6215923;23;20166;-83
2023/06/16 10:17:33;;;;;;;0.30;0.30;;;28.90;54.80;;;;;;6242921;23;20217;-82
2023/06/16 10:20:05;;;;;;;0.30;0.30;;;28.90;53.80;;;;;;6243325;23;20254;-82
2023/06/16 10:22:34;;;;;;;0.20;0.20;;;28.90;53.60;;;;;;6243354;23;20154;-82
2023/06/16 10:25:03;;;;;;;0.30;0.30;;;29.00;53.90;;;;;;6242057;22;20205;-82
2023/06/16 10:27:31;;;;;;;0.73;0.40;;;29.10;53.80;;;;;;6241705;23;20189;-81
2023/06/16 10:30:01;;;;;;;0.20;0.20;;;29.20;52.60;;;;;;6243526;23;20687;-81
2023/06/16 10:32:31;;;;;;;0.57;0.40;;;29.20;52.00;;;;;;6244920;23;20209;-82
2023/06/16 10:35:00;;;;;;;0.20;0.20;;;29.30;52.30;;;;;;6245860;23;20178;-81
2023/06/16 10:37:30;;;;;;;0.63;0.63;;;29.40;51.90;;;;;;6244572;23;20194;-82
2023/06/16 10:40:04;;;;;;;0.82;0.35;;;29.50;51.90;;;;;;6244952;23;20155;-81
2023/06/16 10:42:34;;;;;;;0.30;0.30;;;29.50;51.50;;;;;;6244964;23;20158;-81
2023/06/16 10:45:24;;;;;;;0.30;0.30;;;29.60;51.40;;;;;;6244955;23;20177;-82
2023/06/16 10:47:57;;;;;;;0.20;0.20;;;29.60;50.40;;;;;;6245928;23;20161;-82
2023/06/16 10:50:41;;;;;;;0.20;0.20;;;29.70;51.20;;;;;;6243495;23;20194;-81
2023/06/16 10:53:13;;;;;;;0.30;0.30;;;29.70;51.70;;;;;;6244951;23;20238;-83
2023/06/16 10:55:44;;;;;;;1.55;0.88;;;29.80;51.90;;;;;;6245224;23;20166;-83
2023/06/16 10:58:26;;;;;;;0.30;0.30;;;29.90;51.40;;;;;;6218709;23;20194;-83
2023/06/16 11:01:14;;;;;;;0.30;0.30;;;30.10;52.10;;;;;;6244876;23;20163;-82
2023/06/16 11:03:44;;;;;;;0.30;0.30;;;30.10;50.50;;;;;;6214042;23;20166;-83
2023/06/16 11:06:13;;;;;;;0.88;0.40;;;30.20;50.00;;;;;;6243942;23;20923;-81
2023/06/16 11:08:54;;;;;;;0.32;0.32;;;30.20;49.70;;;;;;6244631;23;20170;-81
2023/06/16 11:11:23;;;;;;;0.20;0.20;;;30.30;49.90;;;;;;6244272;23;21059;-81
2023/06/16 11:13:53;;;;;;;1.10;0.50;;;30.30;50.10;;;;;;6244275;23;20177;-82
2023/06/16 11:16:22;;;;;;;0.40;0.30;;;30.30;50.20;;;;;;6244150;23;20175;-82
2023/06/16 11:18:51;;;;;;;0.20;0.20;;;30.40;50.70;;;;;;6244382;23;20177;-83
2023/06/16 11:21:20;;;;;;;0.93;0.88;;;30.40;50.70;;;;;;6244135;23;20173;-82
2023/06/16 11:23:48;;;;;;;0.30;0.30;;;30.50;50.20;;;;;;6238236;22;20190;-81
2023/06/16 11:26:20;;;;;;;0.73;0.73;;;30.50;49.30;;;;;;6236404;23;20220;-80
2023/06/16 11:28:51;;;;;;;0.65;0.55;;;30.60;50.00;;;;;;6239239;23;20496;-82
2023/06/16 11:31:20;;;;;;;3.30;0.38;;;30.60;50.60;;;;;;6238768;23;20206;-78
2023/06/16 11:33:55;;;;;;;0.20;0.20;;;30.60;49.50;;;;;;6240871;23;20159;-80
2023/06/16 11:36:24;;;;;;;0.28;0.28;;;30.60;50.10;;;;;;6238985;23;20165;-79
2023/06/16 11:38:55;;;;;;;0.75;0.63;;;30.70;49.80;;;;;;6237775;23;20185;-79
2023/06/16 11:41:27;;;;;;;0.20;0.20;;;30.80;49.70;;;;;;6240384;23;20189;-80
2023/06/16 11:43:55;;;;;;;0.30;0.30;;;30.90;49.90;;;;;;6241344;23;20162;-80
2023/06/16 11:46:26;;;;;;;0.85;0.45;;;31.00;49.80;;;;;;6241159;23;20177;-80
2023/06/16 11:48:55;;;;;;;0.30;0.30;;;31.00;49.50;;;;;;6243673;23;20174;-79
2023/06/16 11:51:24;;;;;;;0.20;0.20;;;31.00;49.50;;;;;;6243183;23;20166;-83
2023/06/16 11:53:53;;;;;;;0.47;0.47;;;31.10;49.40;;;;;;6242400;23;20171;-80
2023/06/16 11:56:24;;;;;;;0.22;0.22;;;31.20;49.10;;;;;;6240585;23;20253;-79
2023/06/16 11:58:53;;;;;;;0.20;0.20;;;31.30;49.20;;;;;;6242494;23;20189;-82
2023/06/16 12:01:24;;;;;;;0.40;0.40;;;31.40;48.90;;;;;;6242699;23;20203;-80
2023/06/16 12:03:53;;;;;;;0.30;0.30;;;31.40;48.70;;;;;;6243262;23;20163;-81
2023/06/16 12:06:32;;;;;;;0.45;0.45;;;31.50;48.60;;;;;;6242285;23;20154;-81
2023/06/16 12:09:03;;;;;;;0.32;0.32;;;31.60;48.40;;;;;;6242664;23;20174;-80
2023/06/16 12:11:36;;;;;;;0.35;0.35;;;31.70;48.90;;;;;;6243125;23;20171;-81
2023/06/16 12:14:04;;;;;;;0.30;0.30;;;31.80;49.10;;;;;;6240706;23;20159;-81
2023/06/16 12:16:33;;;;;;;0.85;0.52;;;31.80;49.30;;;;;;6242439;23;20245;-82
2023/06/16 12:19:02;;;;;;;0.25;0.20;;;31.90;49.40;;;;;;6237180;23;20194;-80
2023/06/16 12:21:30;;;;;;;1.15;0.30;;;32.00;49.30;;;;;;6238243;23;20626;-81
2023/06/16 12:24:00;;;;;;;0.20;0.20;;;32.10;49.30;;;;;;6240112;23;20655;-81
2023/06/16 12:26:33;;;;;;;1.08;0.75;;;32.10;49.40;;;;;;6239278;23;20189;-80
2023/06/16 12:29:09;;;;;;;0.90;0.40;;;32.20;48.90;;;;;;6241920;23;20678;-81
2023/06/16 12:31:50;;;;;;;0.47;0.47;;;32.30;49.10;;;;;;6241422;23;20164;-81
2023/06/16 12:34:26;;;;;;;0.40;0.40;;;32.40;49.50;;;;;;6241545;23;20234;-81
2023/06/16 12:36:56;;;;;;;0.95;0.52;;;32.50;49.90;;;;;;6242357;23;20635;-80
2023/06/16 12:39:24;;;;;;;0.57;0.40;;;32.50;49.50;;;;;;6241342;23;20662;-80
2023/06/16 12:41:58;;;;;;;0.32;0.30;;;32.40;49.10;;;;;;6241244;23;20172;-81
2023/06/16 12:44:42;;;;;;;0.55;0.40;;;32.40;49.60;;;;;;6240831;23;20174;-81
2023/06/16 12:47:11;;;;;;;0.30;0.30;;;32.40;49.70;;;;;;6240572;23;20154;-80
2023/06/16 12:49:39;;;;;;;0.90;0.90;;;32.40;49.60;;;;;;6243223;23;20171;-81
2023/06/16 12:52:09;;;;;;;0.40;0.40;;;32.40;49.40;;;;;;6240327;23;20170;-81
2023/06/16 12:54:38;;;;;;;0.43;0.35;;;32.30;49.00;;;;;;6242197;23;20216;-81
2023/06/16 12:57:09;;;;;;;0.43;0.40;;;32.30;49.20;;;;;;6243029;23;20254;-86
2023/06/16 12:59:44;;;;;;;0.40;0.40;;;32.20;49.50;;;;;;6243181;23;20159;-88
2023/06/16 13:02:12;;;;;;;0.50;0.40;;;32.20;50.00;;;;;;6241246;23;20166;-84
2023/06/16 13:04:41;;;;;;;1.52;1.20;;;32.20;50.10;;;;;;6242462;23;20174;-84